createdAt,value
2022-08-26T00:02:25.699Z,12.77
2022-08-26T00:04:57.315Z,15.18
2022-08-26T00:07:27.817Z,15.95
2022-08-26T00:09:59.760Z,15.93
2022-08-26T00:12:37.286Z,18.23
2022-08-26T00:15:11.509Z,18.17
2022-08-26T00:17:45.112Z,15.68
2022-08-26T00:20:20.513Z,17.80
2022-08-26T00:22:50.842Z,20.67
2022-08-26T00:25:24.597Z,22.08
2022-08-26T00:27:57.605Z,22.10
2022-08-26T00:30:31.716Z,25.17
2022-08-26T00:33:06.415Z,27.05
2022-08-26T00:35:38.788Z,25.65
2022-08-26T00:38:15.740Z,28.65
2022-08-26T00:40:52.665Z,28.95
2022-08-26T00:43:27.013Z,29.23
2022-08-26T00:46:07.771Z,29.23
2022-08-26T00:48:49.957Z,32.47
2022-08-26T00:51:29.713Z,34.92
2022-08-26T00:54:06.619Z,34.70
2022-08-26T00:56:53.681Z,36.47
2022-08-26T00:59:25.376Z,34.70
2022-08-26T01:01:58.732Z,35.28
2022-08-26T01:04:34.179Z,38.78
2022-08-26T01:07:04.805Z,42.40
2022-08-26T01:09:36.628Z,34.17
2022-08-26T01:12:08.416Z,38.70
2022-08-26T01:14:41.123Z,38.92
2022-08-26T01:17:16.895Z,38.63
2022-08-26T01:19:55.614Z,39.92
2022-08-26T01:22:35.493Z,39.97
2022-08-26T01:25:12.878Z,43.28
2022-08-26T01:27:43.457Z,42.83
2022-08-26T01:30:17.790Z,44.40
2022-08-26T01:32:49.917Z,43.08
2022-08-26T01:35:21.045Z,48.70
2022-08-26T01:37:57.446Z,51.28
2022-08-26T01:40:39.054Z,53.35
2022-08-26T01:43:14.767Z,52.92
2022-08-26T01:45:47.546Z,52.50
2022-08-26T01:48:26.563Z,52.45
2022-08-26T01:50:57.811Z,53.33
2022-08-26T01:53:29.941Z,53.05
2022-08-26T01:56:05.778Z,51.33
2022-08-26T01:58:40.922Z,49.10
2022-08-26T02:01:11.680Z,49.28
2022-08-26T02:04:10.102Z,50.72
2022-08-26T02:06:44.406Z,51.45
2022-08-26T02:09:19.919Z,52.20
2022-08-26T02:11:53.992Z,51.42
2022-08-26T02:14:33.584Z,49.63
2022-08-26T02:17:07.294Z,51.35
2022-08-26T02:19:44.491Z,50.70
2022-08-26T02:22:21.779Z,48.63
2022-08-26T02:24:55.913Z,50.33
2022-08-26T02:27:33.680Z,47.75
2022-08-26T02:30:17.176Z,45.03
2022-08-26T02:32:49.447Z,40.40
2022-08-26T02:35:22.644Z,45.65
2022-08-26T02:37:54.867Z,47.83
2022-08-26T02:40:30.803Z,46.90
2022-08-26T02:43:04.785Z,47.65
2022-08-26T02:45:40.219Z,48.00
2022-08-26T02:48:18.867Z,44.10
2022-08-26T02:50:49.644Z,48.25
2022-08-26T02:53:25.071Z,46.03
2022-08-26T02:55:55.880Z,48.72
2022-08-26T02:58:28.835Z,45.97
2022-08-26T03:00:59.633Z,46.33
2022-08-26T03:03:32.299Z,45.88
2022-08-26T03:06:02.888Z,43.88
2022-08-26T03:08:34.464Z,44.08
2022-08-26T03:11:06.059Z,43.90
2022-08-26T03:13:39.997Z,44.42
2022-08-26T03:16:14.065Z,44.10
2022-08-26T03:18:52.097Z,40.88
2022-08-26T03:21:23.790Z,43.45
2022-08-26T03:23:54.313Z,42.90
2022-08-26T03:26:30.921Z,42.38
2022-08-26T03:29:16.211Z,44.50
2022-08-26T03:31:47.301Z,42.80
2022-08-26T03:34:17.801Z,42.03
2022-08-26T03:36:49.423Z,43.13
2022-08-26T03:39:20.346Z,42.92
2022-08-26T03:41:51.600Z,43.13
2022-08-26T03:44:24.908Z,43.83
2022-08-26T03:46:55.430Z,42.50
2022-08-26T03:49:26.076Z,40.58
2022-08-26T03:51:59.317Z,43.17
2022-08-26T03:54:31.004Z,43.08
2022-08-26T03:57:01.418Z,42.08
2022-08-26T03:59:34.375Z,42.05
2022-08-26T04:02:11.424Z,41.75
2022-08-26T04:04:42.245Z,42.70
2022-08-26T04:07:15.745Z,43.47
2022-08-26T04:09:46.223Z,40.13
2022-08-26T04:12:17.775Z,40.05
2022-08-26T04:14:50.657Z,54.35
2022-08-26T04:17:26.389Z,39.05
2022-08-26T04:19:57.100Z,39.13
2022-08-26T04:22:27.545Z,39.92
2022-08-26T04:24:59.973Z,37.53
2022-08-26T04:27:31.677Z,38.80
2022-08-26T04:30:04.500Z,38.35
2022-08-26T04:32:34.762Z,36.85
2022-08-26T04:35:05.361Z,35.50
2022-08-26T04:37:36.537Z,35.53
2022-08-26T04:40:10.946Z,37.58
2022-08-26T04:42:41.396Z,38.47
2022-08-26T04:45:17.420Z,35.60
2022-08-26T04:47:47.813Z,36.95
2022-08-26T04:50:20.248Z,36.22
2022-08-26T04:52:54.359Z,37.67
2022-08-26T04:55:38.716Z,34.13
2022-08-26T04:58:12.965Z,35.97
2022-08-26T05:00:47.279Z,36.58
2022-08-26T05:03:18.439Z,35.03
2022-08-26T05:05:51.144Z,34.25
2022-08-26T05:08:23.607Z,33.75
2022-08-26T05:10:56.498Z,32.40
2022-08-26T05:13:30.572Z,33.30
2022-08-26T05:16:07.233Z,35.25
2022-08-26T05:18:38.464Z,33.33
2022-08-26T05:21:12.125Z,32.78
2022-08-26T05:23:42.292Z,31.38
2022-08-26T05:26:12.625Z,32.70
2022-08-26T05:28:47.234Z,31.50
2022-08-26T05:31:25.526Z,30.48
2022-08-26T05:33:58.423Z,30.75
2022-08-26T05:36:32.240Z,31.67
2022-08-26T05:39:03.239Z,29.30
2022-08-26T05:41:38.570Z,29.33
2022-08-26T05:44:18.772Z,29.10
2022-08-26T05:46:51.767Z,27.58
2022-08-26T05:49:26.209Z,30.38
2022-08-26T05:51:56.630Z,26.08
2022-08-26T05:54:26.884Z,27.42
2022-08-26T05:56:57.508Z,25.25
2022-08-26T05:59:27.783Z,25.67
2022-08-26T06:02:01.043Z,25.40
2022-08-26T06:04:31.445Z,26.17
2022-08-26T06:07:02.544Z,24.17
2022-08-26T06:09:39.095Z,24.95
2022-08-26T06:12:11.236Z,25.05
2022-08-26T06:14:41.538Z,22.98
2022-08-26T06:17:15.568Z,23.83
2022-08-26T06:19:45.887Z,23.35
2022-08-26T06:22:28.358Z,23.75
2022-08-26T06:25:12.179Z,22.80
2022-08-26T06:27:44.607Z,23.02
2022-08-26T06:30:16.348Z,23.92
2022-08-26T06:32:50.044Z,23.80
2022-08-26T06:35:22.056Z,23.48
2022-08-26T06:37:52.299Z,21.80
2022-08-26T06:40:24.068Z,23.05
2022-08-26T06:42:54.481Z,23.15
2022-08-26T06:45:24.781Z,23.90
2022-08-26T06:47:58.783Z,24.92
2022-08-26T06:50:28.982Z,22.13
2022-08-26T06:52:59.216Z,21.85
2022-08-26T06:55:30.947Z,21.85
2022-08-26T06:58:01.126Z,19.77
2022-08-26T07:00:32.733Z,18.73
2022-08-26T07:03:06.220Z,18.13
2022-08-26T07:05:38.556Z,18.55
2022-08-26T07:08:08.896Z,18.90
2022-08-26T07:10:39.729Z,17.90
2022-08-26T07:13:12.791Z,19.33
2022-08-26T07:15:44.603Z,18.90
2022-08-26T07:18:17.980Z,18.25
2022-08-26T07:20:51.923Z,17.95
2022-08-26T07:23:22.182Z,18.27
2022-08-26T07:25:53.766Z,17.42
2022-08-26T07:28:26.811Z,17.98
2022-08-26T07:31:04.109Z,18.17
2022-08-26T07:33:41.864Z,18.50
2022-08-26T07:36:15.669Z,16.67
2022-08-26T07:38:48.136Z,17.85
2022-08-26T07:41:22.814Z,17.02
2022-08-26T07:43:53.712Z,16.25
2022-08-26T07:46:27.162Z,17.00
2022-08-26T07:49:02.698Z,16.45
2022-08-26T07:51:33.305Z,16.38
2022-08-26T07:54:03.584Z,15.82
2022-08-26T07:56:33.970Z,14.88
2022-08-26T07:59:04.300Z,15.63
2022-08-26T08:01:47.465Z,15.75
2022-08-26T08:04:26.037Z,14.27
2022-08-26T08:06:57.885Z,16.65
2022-08-26T08:09:29.514Z,15.10
2022-08-26T08:11:59.729Z,14.98
2022-08-26T08:14:31.073Z,15.27
2022-08-26T08:17:02.173Z,15.02
2022-08-26T08:19:36.839Z,13.55
2022-08-26T08:22:17.774Z,14.10
2022-08-26T08:24:52.904Z,14.13
2022-08-26T08:27:24.325Z,14.95
2022-08-26T08:29:55.841Z,15.18
2022-08-26T08:32:27.089Z,16.02
2022-08-26T08:35:01.227Z,16.10
2022-08-26T08:37:31.679Z,15.20
2022-08-26T08:40:05.559Z,15.68
2022-08-26T08:42:47.051Z,15.02
2022-08-26T08:45:26.145Z,17.45
2022-08-26T08:48:01.952Z,17.38
2022-08-26T08:50:38.131Z,15.82
2022-08-26T08:53:20.456Z,15.98
2022-08-26T08:56:20.586Z,14.35
2022-08-26T08:58:58.924Z,16.15
2022-08-26T09:02:02.240Z,15.25
2022-08-26T09:05:05.900Z,15.55
2022-08-26T09:07:47.021Z,17.23
2022-08-26T09:10:38.055Z,15.82
2022-08-26T09:13:16.817Z,15.50
2022-08-26T09:16:03.893Z,17.40
2022-08-26T09:18:57.166Z,17.33
2022-08-26T09:21:29.085Z,16.67
2022-08-26T09:24:04.341Z,17.60
2022-08-26T09:26:48.843Z,21.00
2022-08-26T09:29:27.639Z,20.58
2022-08-26T09:32:32.212Z,21.02
2022-08-26T09:35:07.589Z,22.77
2022-08-26T09:40:39.751Z,27.25
2022-08-26T09:43:23.206Z,31.35
2022-08-26T09:45:59.652Z,22.38
2022-08-26T09:48:37.453Z,19.45
2022-08-26T09:51:32.608Z,18.35
2022-08-26T09:54:08.191Z,19.58
2022-08-26T09:56:42.998Z,17.23
2022-08-26T09:59:15.038Z,15.18
2022-08-26T10:01:49.423Z,12.55
2022-08-26T10:04:27.779Z,10.52
2022-08-26T10:07:02.393Z,10.35
2022-08-26T10:09:38.863Z,12.88
2022-08-26T10:12:19.452Z,12.40
2022-08-26T10:14:56.736Z,20.52
2022-08-26T10:17:35.069Z,19.40
2022-08-26T10:20:22.542Z,13.63
2022-08-26T10:23:02.466Z,10.73
2022-08-26T10:25:40.852Z,15.95
2022-08-26T10:28:24.504Z,15.05
2022-08-26T10:31:05.990Z,12.57
2022-08-26T10:33:36.429Z,14.88
2022-08-26T10:36:52.285Z,14.32
2022-08-26T10:39:34.222Z,13.27
2022-08-26T10:42:14.444Z,14.43
2022-08-26T10:44:52.858Z,15.25
2022-08-26T10:47:31.543Z,19.00
2022-08-26T10:50:03.690Z,14.30
2022-08-26T10:52:55.681Z,18.15
2022-08-26T10:55:38.488Z,21.60
2022-08-26T10:58:30.870Z,18.17
2022-08-26T11:01:35.233Z,13.70
2022-08-26T11:04:26.113Z,10.93
2022-08-26T11:07:37.104Z,13.90
2022-08-26T11:10:12.915Z,13.43
2022-08-26T11:13:03.664Z,15.52
2022-08-26T11:16:13.167Z,14.55
2022-08-26T11:18:54.694Z,13.65
2022-08-26T11:22:10.751Z,12.85
2022-08-26T11:25:06.582Z,11.48
2022-08-26T11:28:02.761Z,10.18
2022-08-26T11:30:42.784Z,10.70
2022-08-26T11:33:52.304Z,9.73
2022-08-26T11:37:03.469Z,8.93
2022-08-26T11:39:54.965Z,8.98
2022-08-26T11:42:42.727Z,8.50
2022-08-26T11:45:28.574Z,7.25
2022-08-26T11:47:59.829Z,8.02
2022-08-26T11:50:32.757Z,8.48
2022-08-26T11:53:07.762Z,7.07
2022-08-26T11:55:45.775Z,7.22
2022-08-26T11:58:19.732Z,7.22
2022-08-26T12:00:59.144Z,7.22
2022-08-26T12:03:40.262Z,8.20
2022-08-26T12:06:43.374Z,11.95
2022-08-26T12:09:24.817Z,7.05
2022-08-26T12:12:13.243Z,7.15
2022-08-26T12:14:44.800Z,7.63
2022-08-26T12:17:20.043Z,8.43
2022-08-26T12:19:52.848Z,7.22
2022-08-26T12:22:30.605Z,7.53
2022-08-26T12:25:05.671Z,7.47
2022-08-26T12:27:41.547Z,6.90
2022-08-26T12:30:20.035Z,6.28
2022-08-26T12:32:58.871Z,7.18
2022-08-26T12:35:29.988Z,7.25
2022-08-26T12:38:05.570Z,6.28
2022-08-26T12:40:43.220Z,5.80
2022-08-26T12:43:17.331Z,6.43
2022-08-26T12:46:02.173Z,6.10
2022-08-26T12:48:36.535Z,5.68
2022-08-26T12:51:10.690Z,5.65
2022-08-26T12:53:46.902Z,6.32
2022-08-26T12:56:33.852Z,6.35
2022-08-26T12:59:12.186Z,6.25
2022-08-26T13:01:50.037Z,6.00
2022-08-26T13:04:39.462Z,5.90
2022-08-26T13:07:25.876Z,5.80
2022-08-26T13:10:02.043Z,6.25
2022-08-26T13:12:37.269Z,6.28
2022-08-26T13:15:10.128Z,5.70
2022-08-26T13:17:40.342Z,5.97
2022-08-26T13:20:12.486Z,5.82
2022-08-26T13:22:42.733Z,6.22
2022-08-26T13:25:15.994Z,6.32
2022-08-26T13:27:49.975Z,7.30
2022-08-26T13:30:21.546Z,7.13
2022-08-26T13:32:58.288Z,6.80
2022-08-26T13:35:28.552Z,6.35
2022-08-26T13:37:58.972Z,5.88
2022-08-26T13:40:34.599Z,5.65
2022-08-26T13:43:05.056Z,5.15
2022-08-26T13:45:35.232Z,5.32
2022-08-26T13:48:06.873Z,5.57
2022-08-26T13:50:38.293Z,5.10
2022-08-26T13:53:08.561Z,5.13
2022-08-26T13:55:41.408Z,4.32
2022-08-26T13:58:12.408Z,4.50
2022-08-26T14:00:43.818Z,4.78
2022-08-26T14:03:14.417Z,5.28
2022-08-26T14:05:44.731Z,6.13
2022-08-26T14:08:15.052Z,5.60
2022-08-26T14:13:19.268Z,5.53
2022-08-26T14:15:50.928Z,5.43
2022-08-26T14:18:26.339Z,5.22
2022-08-26T14:20:59.311Z,5.20
2022-08-26T14:23:30.354Z,5.22
2022-08-26T14:26:08.146Z,4.95
2022-08-26T14:28:38.521Z,4.57
2022-08-26T14:31:10.003Z,4.00
2022-08-26T14:33:42.321Z,3.42
2022-08-26T14:36:25.383Z,3.75
2022-08-26T14:38:56.599Z,3.78
2022-08-26T14:41:32.011Z,3.38
2022-08-26T14:44:09.352Z,3.40
2022-08-26T14:46:46.378Z,3.90
2022-08-26T14:49:20.377Z,3.75
2022-08-26T14:51:50.675Z,3.30
2022-08-26T14:54:24.578Z,3.78
2022-08-26T14:57:00.474Z,3.50
2022-08-26T14:59:33.977Z,3.80
2022-08-26T15:02:04.808Z,4.50
2022-08-26T15:04:36.462Z,5.00
2022-08-26T15:07:07.853Z,5.07
2022-08-26T15:09:43.676Z,4.32
2022-08-26T15:12:16.385Z,5.55
2022-08-26T15:14:46.948Z,7.95
2022-08-26T15:17:21.475Z,7.65
2022-08-26T15:19:51.737Z,8.32
2022-08-26T15:22:22.280Z,8.55
2022-08-26T15:24:53.700Z,8.85
2022-08-26T15:27:27.626Z,9.32
2022-08-26T15:29:58.159Z,8.55
2022-08-26T15:32:29.479Z,8.95
2022-08-26T15:34:59.760Z,9.13
2022-08-26T15:37:30.069Z,8.77
2022-08-26T15:40:02.500Z,8.60
2022-08-26T15:42:35.471Z,7.72
2022-08-26T15:45:06.067Z,9.23
2022-08-26T15:47:58.128Z,9.45
2022-08-26T15:50:29.462Z,9.18
2022-08-26T15:53:01.384Z,10.40
2022-08-26T15:55:31.789Z,9.27
2022-08-26T15:58:04.976Z,7.97
2022-08-26T16:00:35.493Z,4.15
2022-08-26T16:03:06.670Z,3.80
2022-08-26T16:05:39.659Z,3.25
2022-08-26T16:08:13.956Z,3.38
2022-08-26T16:10:51.405Z,3.28
2022-08-26T16:13:24.980Z,3.17
2022-08-26T16:15:59.114Z,3.50
2022-08-26T16:18:29.510Z,3.33
2022-08-26T16:21:13.342Z,3.22
2022-08-26T16:23:45.521Z,3.50
2022-08-26T16:26:20.626Z,3.85
2022-08-26T16:28:53.739Z,3.10
2022-08-26T16:31:24.401Z,3.30
2022-08-26T16:33:54.711Z,3.28
2022-08-26T16:36:25.007Z,3.50
2022-08-26T16:38:56.717Z,4.10
2022-08-26T16:41:31.071Z,4.53
2022-08-26T16:44:04.335Z,4.50
2022-08-26T16:46:35.151Z,4.55
2022-08-26T16:49:06.138Z,4.45
2022-08-26T16:51:38.175Z,4.30
2022-08-26T16:54:10.892Z,4.20
2022-08-26T16:56:41.975Z,3.75
2022-08-26T16:59:14.814Z,5.20
2022-08-26T17:01:45.132Z,4.85
2022-08-26T17:04:15.348Z,4.10
2022-08-26T17:06:45.656Z,4.45
2022-08-26T17:09:15.909Z,4.97
2022-08-26T17:11:47.096Z,4.97
2022-08-26T17:14:20.583Z,4.95
2022-08-26T17:16:53.852Z,5.43
2022-08-26T17:19:40.890Z,4.75
2022-08-26T17:22:20.448Z,4.68
2022-08-26T17:24:50.658Z,4.50
2022-08-26T17:27:20.992Z,4.47
2022-08-26T17:29:53.807Z,3.78
2022-08-26T17:32:24.124Z,3.28
2022-08-26T17:35:00.766Z,3.55
2022-08-26T17:37:31.401Z,2.90
2022-08-26T17:40:02.527Z,3.10
2022-08-26T17:42:32.787Z,2.85
2022-08-26T17:45:06.124Z,3.05
2022-08-26T17:47:36.866Z,2.47
2022-08-26T17:50:12.918Z,2.80
2022-08-26T17:52:44.338Z,2.90
2022-08-26T17:55:17.984Z,2.53
2022-08-26T17:57:53.496Z,2.92
2022-08-26T18:00:29.401Z,3.00
2022-08-26T18:03:02.180Z,2.47
2022-08-26T18:05:32.717Z,2.92
2022-08-26T18:08:02.858Z,2.70
2022-08-26T18:10:35.326Z,2.40
2022-08-26T18:13:08.101Z,3.00
2022-08-26T18:15:41.718Z,2.28
2022-08-26T18:18:13.452Z,2.28
2022-08-26T18:20:46.315Z,2.30
2022-08-26T18:23:23.348Z,2.47
2022-08-26T18:25:57.345Z,2.60
2022-08-26T18:28:28.298Z,2.70
2022-08-26T18:31:01.216Z,2.67
2022-08-26T18:33:31.421Z,2.78
2022-08-26T18:36:01.694Z,2.40
2022-08-26T18:38:31.839Z,2.38
2022-08-26T18:41:07.918Z,2.65
2022-08-26T18:43:38.113Z,2.15
2022-08-26T18:46:13.443Z,2.50
2022-08-26T18:48:45.817Z,2.40
2022-08-26T18:51:25.785Z,2.25
2022-08-26T18:53:58.587Z,2.63
2022-08-26T18:56:29.288Z,2.20
2022-08-26T18:58:59.895Z,2.40
2022-08-26T19:01:34.901Z,2.70
2022-08-26T19:04:08.000Z,2.90
2022-08-26T19:06:39.498Z,2.50
2022-08-26T19:09:14.560Z,2.15
2022-08-26T19:11:49.644Z,2.53
2022-08-26T19:14:21.740Z,2.22
2022-08-26T19:16:55.434Z,2.35
2022-08-26T19:19:26.823Z,2.45
2022-08-26T19:21:57.200Z,2.30
2022-08-26T19:24:28.386Z,2.10
2022-08-26T19:27:02.518Z,2.30
2022-08-26T19:29:37.833Z,2.33
2022-08-26T19:32:10.712Z,3.00
2022-08-26T19:34:40.960Z,2.20
2022-08-26T19:37:11.163Z,2.13
2022-08-26T19:39:41.371Z,2.30
2022-08-26T19:42:11.534Z,1.92
2022-08-26T19:44:54.254Z,2.28
2022-08-26T19:47:29.270Z,2.15
2022-08-26T19:50:00.051Z,2.42
2022-08-26T19:52:32.116Z,2.25
2022-08-26T19:55:04.992Z,2.30
2022-08-26T19:57:35.522Z,2.58
2022-08-26T20:00:09.236Z,2.13
2022-08-26T20:02:42.769Z,2.20
2022-08-26T20:05:17.301Z,2.13
2022-08-26T20:07:47.714Z,1.88
2022-08-26T20:10:20.648Z,2.33
2022-08-26T20:12:53.755Z,2.00
2022-08-26T20:15:25.691Z,2.50
2022-08-26T20:18:01.181Z,2.40
2022-08-26T20:20:46.104Z,2.33
2022-08-26T20:23:18.188Z,2.10
2022-08-26T20:25:48.408Z,2.00
2022-08-26T20:28:18.671Z,2.00
2022-08-26T20:30:51.929Z,2.03
2022-08-26T20:33:24.998Z,2.15
2022-08-26T20:35:55.283Z,2.47
2022-08-26T20:38:25.498Z,3.10
2022-08-26T20:40:56.521Z,1.90
2022-08-26T20:43:26.921Z,2.00
2022-08-26T20:45:57.219Z,2.40
2022-08-26T20:48:30.152Z,2.47
2022-08-26T20:51:04.139Z,2.00
2022-08-26T20:53:35.712Z,2.55
2022-08-26T20:56:09.283Z,2.30
2022-08-26T20:58:40.925Z,2.17
2022-08-26T21:01:19.523Z,2.20
2022-08-26T21:03:55.019Z,2.53
2022-08-26T21:06:25.919Z,1.95
2022-08-26T21:08:57.080Z,2.33
2022-08-26T21:11:28.371Z,2.40
2022-08-26T21:14:06.897Z,2.20
2022-08-26T21:16:48.675Z,2.30
2022-08-26T21:19:22.706Z,2.55
2022-08-26T21:21:53.452Z,2.50
2022-08-26T21:24:24.037Z,2.40
2022-08-26T21:26:54.288Z,2.50
2022-08-26T21:29:37.134Z,2.35
2022-08-26T21:32:08.555Z,2.50
2022-08-26T21:34:45.189Z,2.35
2022-08-26T21:37:16.777Z,2.65
2022-08-26T21:39:47.412Z,2.33
2022-08-26T21:42:17.879Z,2.15
2022-08-26T21:44:52.696Z,2.60
2022-08-26T21:47:24.466Z,2.63
2022-08-26T21:49:57.464Z,3.00
2022-08-26T21:52:27.811Z,2.50
2022-08-26T21:55:01.557Z,2.13
2022-08-26T21:57:32.242Z,2.47
2022-08-26T22:00:04.710Z,2.08
2022-08-26T22:02:35.216Z,2.70
2022-08-26T22:05:08.859Z,2.55
2022-08-26T22:07:39.090Z,2.40
2022-08-26T22:10:11.303Z,2.63
2022-08-26T22:12:41.539Z,2.55
2022-08-26T22:15:13.200Z,2.53
2022-08-26T22:17:43.526Z,2.72
2022-08-26T22:20:16.882Z,2.70
2022-08-26T22:22:47.482Z,2.50
2022-08-26T22:25:17.714Z,2.70
2022-08-26T22:27:47.909Z,2.75
2022-08-26T22:30:19.822Z,2.53
2022-08-26T22:32:50.371Z,2.72
2022-08-26T22:35:28.851Z,2.90
2022-08-26T22:38:00.944Z,2.90
2022-08-26T22:40:31.158Z,2.60
2022-08-26T22:43:01.589Z,3.70
2022-08-26T22:45:35.082Z,3.60
2022-08-26T22:48:09.658Z,3.55
2022-08-26T22:50:42.534Z,4.35
2022-08-26T22:53:13.457Z,3.88
2022-08-26T22:55:43.667Z,3.83
2022-08-26T22:58:15.900Z,4.13
2022-08-26T23:00:48.415Z,4.00
2022-08-26T23:03:20.086Z,4.32
2022-08-26T23:05:55.423Z,4.63
2022-08-26T23:08:27.469Z,4.95
2022-08-26T23:10:57.647Z,4.40
2022-08-26T23:13:27.935Z,5.13
2022-08-26T23:16:05.094Z,5.93
2022-08-26T23:18:35.580Z,8.65
2022-08-26T23:21:09.041Z,10.02
2022-08-26T23:23:39.695Z,10.30
2022-08-26T23:26:12.629Z,11.10
2022-08-26T23:28:44.691Z,12.38
2022-08-26T23:31:14.939Z,14.10
2022-08-26T23:33:57.699Z,13.27
2022-08-26T23:36:31.206Z,14.68
2022-08-26T23:39:07.112Z,13.52
2022-08-26T23:41:38.482Z,12.93
2022-08-26T23:44:11.380Z,12.90
2022-08-26T23:46:42.638Z,11.52
2022-08-26T23:49:12.796Z,13.90
2022-08-26T23:51:58.094Z,14.73
2022-08-26T23:54:28.318Z,16.38
2022-08-26T23:56:58.529Z,19.13
2022-08-26T23:59:28.898Z,19.92
